Time;durP1;ratioP1;P1;durP2;ratioP2;P2;SDS_P1;SDS_P2;PMS_P1;PMS_P2;Temp;Humidity;BMP_temperature;BMP_pressure;BME280_temperature;BME280_humidity;BME280_pressure;Samples;Min_cycle;Max_cycle;Signal;HPM_P1;HPM_P2
2023/04/28 05:00:53;;;;;;;;;0.00;0.00;;;;;17.40;100.00;65571.50;5873450;23;46461;-87
2023/04/28 05:03:19;;;;;;;;;0.00;0.00;;;;;17.24;100.00;62833.81;5015798;28;45380;-86
2023/04/28 05:05:44;;;;;;;;;0.00;0.00;;;;;17.41;100.00;65278.25;5015401;28;45889;-86
2023/04/28 05:08:11;;;;;;;;;0.00;0.00;;;;;17.41;100.00;62843.25;4997553;28;45452;-85
2023/04/28 05:10:36;;;;;;;;;0.00;0.00;;;;;17.24;99.85;59787.13;5015514;28;45530;-86
2023/04/28 05:13:02;;;;;;;;;0.00;0.00;;;;;17.39;99.73;57813.09;5015389;28;45347;-87
2023/04/28 05:15:28;;;;;;;;;0.00;0.00;;;;;17.34;99.30;57550.03;5015628;28;46896;-85
2023/04/28 05:17:53;;;;;;;;;1.00;0.00;;;;;17.42;99.48;56280.91;5018865;28;45713;-86
2023/04/28 05:20:19;;;;;;;;;0.00;0.00;;;;;17.22;99.30;55654.94;5018809;28;45461;-86
2023/04/28 05:22:44;;;;;;;;;0.00;0.00;;;;;17.43;99.53;54691.78;5019006;28;45452;-87
2023/04/28 05:25:09;;;;;;;;;1.00;0.00;;;;;17.37;99.45;53985.63;5018624;28;47229;-86
2023/04/28 05:27:38;;;;;;;;;0.00;0.00;;;;;17.06;100.00;56771.28;5018361;28;45465;-87
2023/04/28 05:30:04;;;;;;;;;0.00;0.00;;;;;17.31;99.54;53316.97;5019212;28;45453;-88
2023/04/28 05:32:30;;;;;;;;;0.00;0.00;;;;;17.45;99.36;51596.38;5002919;28;45454;-88
2023/04/28 05:34:55;;;;;;;;;0.00;0.00;;;;;17.35;98.54;49940.31;5019437;28;46252;-87
2023/04/28 05:37:21;;;;;;;;;0.00;0.00;;;;;17.46;98.82;50676.84;5018086;28;58323;-86
2023/04/28 05:39:46;;;;;;;;;0.00;0.00;;;;;17.18;99.23;50375.81;5018214;28;51087;-88
2023/04/28 05:42:11;;;;;;;;;0.00;0.00;;;;;17.42;98.38;48358.44;5018360;28;45495;-88
2023/04/28 05:44:36;;;;;;;;;0.00;0.00;;;;;17.06;98.70;47831.72;5018241;28;47291;-87
2023/04/28 05:47:02;;;;;;;;;0.00;0.00;;;;;17.44;98.69;47695.75;5018381;28;45442;-89
2023/04/28 05:49:27;;;;;;;;;0.00;0.00;;;;;17.34;98.70;46140.31;5018221;28;45387;-88
2023/04/28 05:51:52;;;;;;;;;0.00;0.00;;;;;17.28;98.75;44456.34;5018792;28;45340;-87
2023/04/28 05:54:18;;;;;;;;;0.00;0.00;;;;;17.48;98.65;44012.00;5014382;28;46146;-88
2023/04/28 05:56:43;;;;;;;;;5.67;2.33;;;;;17.43;99.06;47261.09;5016813;28;59779;-86
2023/04/28 05:59:08;;;;;;;;;0.00;0.00;;;;;17.48;98.73;48600.28;5018038;28;45351;-88
2023/04/28 06:01:34;;;;;;;;;0.25;0.00;;;;;17.31;98.34;47373.81;5016319;28;45921;-87
2023/04/28 06:04:00;;;;;;;;;0.00;0.00;;;;;17.49;99.12;48537.72;4999796;28;45795;-87
2023/04/28 06:06:26;;;;;;;;;0.00;0.00;;;;;17.49;98.53;44286.44;5002751;28;45527;-87
2023/04/28 06:08:51;;;;;;;;;0.00;0.00;;;;;17.49;99.01;47274.47;5018256;28;46088;-87
2023/04/28 06:11:20;;;;;;;;;0.00;0.00;;;;;17.50;98.39;43562.28;5017861;28;45548;-89
2023/04/28 06:13:46;;;;;;;;;0.00;0.00;;;;;17.32;98.74;43293.50;5017710;28;48058;-87
2023/04/28 06:16:11;;;;;;;;;1.00;0.00;;;;;17.37;97.96;41225.94;5017569;28;45423;-88
2023/04/28 06:18:36;;;;;;;;;0.00;0.00;;;;;17.50;98.18;41123.94;5018295;28;45473;-87
2023/04/28 06:21:02;;;;;;;;;0.00;0.00;;;;;17.44;98.28;42672.84;5019664;28;45410;-86
2023/04/28 06:23:27;;;;;;;;;0.00;0.00;;;;;17.52;98.67;42960.44;5018329;28;45704;-86
2023/04/28 06:25:53;;;;;;;;;0.00;0.00;;;;;17.52;98.36;42487.66;5017428;28;45411;-88
2023/04/28 06:28:18;;;;;;;;;1.00;0.00;;;;;17.30;98.05;39252.66;5016933;28;45434;-88
2023/04/28 06:30:43;;;;;;;;;0.00;0.00;;;;;17.33;97.68;37325.84;5018052;28;45463;-88
2023/04/28 06:33:09;;;;;;;;;2.00;0.00;;;;;17.55;98.30;40578.00;4999561;28;51581;-87
2023/04/28 06:35:37;;;;;;;;;0.00;0.00;;;;;17.44;98.40;40039.25;5017541;28;45498;-87
2023/04/28 06:38:03;;;;;;;;;0.00;0.00;;;;;17.57;97.92;38365.94;5017738;28;45435;-88
2023/04/28 06:40:28;;;;;;;;;0.00;0.00;;;;;17.62;97.96;37387.63;5017487;28;45704;-87
2023/04/28 06:42:54;;;;;;;;;0.00;0.00;;;;;17.60;98.31;39267.59;5017357;28;46093;-88
2023/04/28 06:45:19;;;;;;;;;0.00;0.00;;;;;17.63;98.41;41465.38;5017569;28;45508;-87
2023/04/28 06:47:45;;;;;;;;;0.00;0.00;;;;;17.69;98.73;44046.53;5017387;28;45578;-87
2023/04/28 06:50:10;;;;;;;;;0.00;0.00;;;;;17.52;98.46;39883.06;5035120;28;45406;-87
2023/04/28 06:52:37;;;;;;;;;0.00;0.00;;;;;17.62;98.54;40221.63;5037320;28;45468;-87
2023/04/28 06:55:04;;;;;;;;;0.00;0.00;;;;;17.71;97.96;37929.31;5037011;28;45405;-86
2023/04/28 06:57:29;;;;;;;;;0.00;0.00;;;;;17.47;98.05;37165.47;5037243;28;45652;-87
2023/04/28 06:59:54;;;;;;;;;0.00;0.00;;;;;17.73;97.63;34861.50;5037397;28;45514;-87
2023/04/28 07:02:20;;;;;;;;;0.00;0.00;;;;;17.56;97.31;34315.41;5036713;28;45481;-86
2023/04/28 07:04:45;;;;;;;;;0.25;0.00;;;;;17.48;97.42;34286.91;5036969;28;45634;-88
2023/04/28 07:07:11;;;;;;;;;0.00;0.00;;;;;17.49;97.43;33082.16;5036753;28;45600;-89
2023/04/28 07:09:37;;;;;;;;;1.25;0.00;;;;;17.57;97.60;34284.22;5038515;28;45501;-89
2023/04/28 07:12:03;;;;;;;;;0.00;0.00;;;;;17.79;97.22;32317.28;5038144;28;47043;-87
2023/04/28 07:14:28;;;;;;;;;0.00;0.00;;;;;17.82;97.27;32607.94;5036809;28;45485;-88
2023/04/28 07:16:54;;;;;;;;;0.00;0.00;;;;;17.77;98.30;38373.59;5037088;28;45473;-88
2023/04/28 07:19:19;;;;;;;;;0.00;0.00;;;;;17.60;97.38;35319.97;5019333;28;45450;-87
2023/04/28 07:21:45;;;;;;;;;0.00;0.00;;;;;17.63;97.92;35088.88;5036404;28;46994;-86
2023/04/28 07:24:10;;;;;;;;;0.00;0.00;;;;;17.92;97.31;32929.31;5036804;28;45665;-87
2023/04/28 07:26:35;;;;;;;;;0.00;0.00;;;;;17.82;97.05;31153.38;5037083;28;45724;-87
2023/04/28 07:29:01;;;;;;;;;0.00;0.00;;;;;17.90;96.87;30481.94;5036746;28;45403;-88
2023/04/28 07:31:27;;;;;;;;;0.00;0.00;;;;;18.00;97.26;29287.00;5036404;28;53421;-87
2023/04/28 07:33:53;;;;;;;;;0.00;0.00;;;;;17.99;98.07;37374.53;5037485;28;45656;-92
2023/04/28 07:36:18;;;;;;;;;0.00;0.00;;;;;18.11;97.96;35423.66;5035713;28;45596;-91
2023/04/28 07:38:44;;;;;;;;;0.00;0.00;;;;;18.13;97.39;32074.38;5036710;28;45444;-89
2023/04/28 07:41:09;;;;;;;;;0.00;0.00;;;;;17.97;97.51;31132.41;5019064;28;59587;-91
2023/04/28 07:43:34;;;;;;;;;0.00;0.00;;;;;18.09;96.97;29951.84;5031498;28;45668;-90
2023/04/28 07:45:59;;;;;;;;;0.00;0.00;;;;;17.99;97.18;32400.56;5011762;28;48861;-89
2023/04/28 07:48:26;;;;;;;;;1.00;0.00;;;;;18.08;97.67;32270.31;5019439;28;45480;-89
2023/04/28 07:50:52;;;;;;;;;0.00;0.00;;;;;18.19;97.81;32971.28;5035194;28;46682;-87
2023/04/28 07:53:17;;;;;;;;;0.00;0.00;;;;;18.11;97.06;29420.06;5035750;28;45660;-90
2023/04/28 07:55:43;;;;;;;;;0.00;0.00;;;;;18.27;97.55;29608.88;5036016;28;45473;-90
2023/04/28 07:58:09;;;;;;;;;0.00;0.00;;;;;18.06;97.08;27380.56;5019571;28;44886;-88
2023/04/28 08:00:35;;;;;;;;;0.00;0.00;;;;;18.34;96.62;28125.63;5020653;28;47365;-88
2023/04/28 08:03:00;;;;;;;;;0.00;0.00;;;;;18.18;97.32;26372.09;5037891;28;45589;-89
2023/04/28 08:05:25;;;;;;;;;0.00;0.00;;;;;18.29;97.00;30725.97;5037894;28;45933;-89
2023/04/28 08:07:51;;;;;;;;;0.00;0.00;;;;;17.71;97.31;30903.44;5037255;28;45524;-90
2023/04/28 08:10:16;;;;;;;;;0.00;0.00;;;;;18.21;97.07;27885.81;5035734;28;46188;-89
2023/04/28 08:12:44;;;;;;;;;0.00;0.00;;;;;18.04;96.63;26296.69;5035678;28;45469;-90
2023/04/28 08:15:09;;;;;;;;;0.00;0.00;;;;;18.19;96.68;24694.19;5035458;28;45408;-89
2023/04/28 08:17:35;;;;;;;;;0.00;0.00;;;;;18.15;96.18;24377.69;5035797;28;45426;-89
2023/04/28 08:20:00;;;;;;;;;0.00;0.00;;;;;17.87;96.15;23595.56;5035232;28;45747;-90
2023/04/28 08:22:26;;;;;;;;;0.00;0.00;;;;;17.41;96.45;23200.47;5035398;28;45615;-91
2023/04/28 08:24:58;;;;;;;;;0.00;0.00;;;;;17.76;95.89;23239.25;5035292;28;45512;-90
2023/04/28 08:27:24;;;;;;;;;0.00;0.00;;;;;17.79;96.41;23515.31;5036186;28;45677;-89
2023/04/28 08:29:50;;;;;;;;;0.00;0.00;;;;;18.43;96.02;21563.41;5035342;28;46324;-91
2023/04/28 08:32:16;;;;;;;;;0.00;0.00;;;;;18.27;96.15;20218.97;5035370;28;45401;-88
2023/04/28 08:34:42;;;;;;;;;0.00;0.00;;;;;17.50;96.07;21740.56;5035156;28;45379;-88
2023/04/28 08:37:07;;;;;;;;;0.00;0.00;;;;;18.56;96.06;20518.50;5035689;28;45559;-88
2023/04/28 08:39:34;;;;;;;;;0.00;0.00;;;;;18.62;96.07;20782.56;5035288;28;46602;-86
2023/04/28 08:42:03;;;;;;;;;0.00;0.00;;;;;18.02;96.15;18425.97;5035670;28;45475;-94
2023/04/28 08:44:40;;;;;;;;;0.00;0.00;;;;;17.60;95.92;19871.75;5019954;28;45400;-89
2023/04/28 08:47:13;;;;;;;;;0.00;0.00;;;;;18.69;95.64;18150.63;5040129;28;45420;-91
2023/04/28 08:49:39;;;;;;;;;0.00;0.00;;;;;18.69;95.84;18266.97;5028011;28;45389;-91
2023/04/28 08:52:15;;;;;;;;;0.00;0.00;;;;;18.33;95.39;17107.56;5019602;28;45468;-90
2023/04/28 08:54:41;;;;;;;;;0.00;0.00;;;;;18.13;95.05;15046.66;5018911;28;45564;-89
2023/04/28 08:57:13;;;;;;;;;0.00;0.00;;;;;18.37;94.89;14332.81;5001302;28;45615;-90
2023/04/28 09:03:28;;;;;;;;;0.00;0.00;;;;;18.86;94.71;10337.38;5038049;28;45544;-89
2023/04/28 09:05:57;;;;;;;;;1.00;1.00;;;;;18.41;95.05;8969.28;5038790;28;45512;-89
2023/04/28 09:08:26;;;;;;;;;0.00;0.00;;;;;18.22;94.70;8628.06;5037526;28;45530;-91
2023/04/28 09:11:08;;;;;;;;;0.00;0.00;;;;;18.60;94.36;6417.75;5038329;28;45910;-91
2023/04/28 09:13:35;;;;;;;;;0.00;0.00;;;;;19.06;94.60;5248.66;5038503;28;45578;-90
2023/04/28 09:16:02;;;;;;;;;0.00;0.00;;;;;18.24;93.86;4429.00;5038472;28;45421;-88
2023/04/28 09:18:33;;;;;;;;;0.00;0.00;;;;;17.81;93.97;3110.84;5038425;28;45499;-85
2023/04/28 09:21:05;;;;;;;;;0.00;0.00;;;;;19.10;93.94;2889.44;5038066;28;47278;-86
2023/04/28 09:23:32;;;;;;;;;0.00;0.00;;;;;18.84;93.53;503.28;5037964;28;45526;-86
2023/04/28 09:26:06;;;;;;;;;0.00;0.00;;;;;19.14;93.83;-13.75;5038210;28;45438;-86
2023/04/28 09:28:33;;;;;;;;;0.00;0.00;;;;;19.18;93.87;-403.38;5038505;28;45434;-86
2023/04/28 09:30:58;;;;;;;;;0.00;0.00;;;;;18.82;93.89;-1486.78;5038019;28;46609;-86
2023/04/28 09:33:24;;;;;;;;;0.00;0.00;;;;;19.17;93.39;-2515.13;5037366;28;45343;-86
2023/04/28 09:35:50;;;;;;;;;0.00;0.00;;;;;19.21;92.93;-4346.84;5038150;28;45517;-86
2023/04/28 09:38:17;;;;;;;;;0.00;0.00;;;;;18.80;92.97;-4990.34;5020569;28;45467;-85
2023/04/28 09:41:00;;;;;;;;;0.00;0.00;;;;;19.19;93.31;-5630.63;5019937;28;47006;-85
2023/04/28 09:43:31;;;;;;;;;0.00;0.00;;;;;19.07;92.69;-6858.06;5037605;28;45489;-84
2023/04/28 09:46:00;;;;;;;;;0.00;0.00;;;;;19.03;93.18;-7578.03;5037858;28;45482;-84
2023/04/28 09:48:35;;;;;;;;;0.00;0.00;;;;;19.26;92.84;-8147.47;5034672;28;45477;-88
2023/04/28 09:51:02;;;;;;;;;0.00;0.00;;;;;19.29;92.43;-8707.63;5017545;28;46961;-85
2023/04/28 09:53:28;;;;;;;;;0.00;0.00;;;;;19.30;92.77;-11135.78;5017616;28;45478;-84
2023/04/28 09:55:57;;;;;;;;;0.00;0.00;;;;;19.08;92.09;-12130.78;5017994;28;45524;-84
2023/04/28 09:58:23;;;;;;;;;0.00;0.00;;;;;19.13;91.88;-12874.56;5018108;28;45385;-84
2023/04/28 10:00:52;;;;;;;;;0.00;0.00;;;;;18.95;91.98;-13441.19;5017278;28;45628;-84
2023/04/28 10:03:20;;;;;;;;;0.00;0.00;;;;;19.32;92.26;-14037.81;5015959;28;45721;-84
2023/04/28 10:05:47;;;;;;;;;0.00;0.00;;;;;18.76;91.51;-14112.28;5017477;28;45591;-84
2023/04/28 10:08:12;;;;;;;;;0.00;0.00;;;;;19.03;92.06;-16821.03;5017894;28;45761;-84
2023/04/28 10:10:38;;;;;;;;;0.75;0.00;;;;;19.21;92.33;-13860.13;5018002;28;47007;-83
2023/04/28 10:13:04;;;;;;;;;0.00;0.00;;;;;19.15;91.41;-16217.84;5037774;28;45391;-82
2023/04/28 10:15:31;;;;;;;;;0.00;0.00;;;;;19.09;91.59;-16777.78;5037844;28;45798;-83
2023/04/28 10:17:58;;;;;;;;;0.00;0.00;;;;;19.09;91.18;-17970.59;5037825;28;45852;-84
2023/04/28 10:20:25;;;;;;;;;0.00;0.00;;;;;19.32;91.16;-18322.22;5037470;28;46334;-82
2023/04/28 10:23:27;;;;;;;;;0.00;0.00;;;;;19.32;91.24;-18683.91;5037616;28;45420;-86
2023/04/28 10:25:56;;;;;;;;;0.00;0.00;;;;;19.02;90.93;-19132.50;5037932;28;45678;-83
2023/04/28 10:28:22;;;;;;;;;0.00;0.00;;;;;19.52;90.88;-19328.66;5035297;28;45420;-83
2023/04/28 10:31:17;;;;;;;;;0.00;0.00;;;;;19.71;91.00;-19734.13;5037280;28;45403;-82
2023/04/28 10:33:43;;;;;;;;;0.00;0.00;;;;;19.85;90.37;-19737.88;5037472;28;45873;-82
2023/04/28 10:36:09;;;;;;;;;0.00;0.00;;;;;19.93;90.10;-19739.88;5037637;28;45343;-82
2023/04/28 10:38:36;;;;;;;;;0.00;0.00;;;;;19.94;89.38;-19740.16;5037888;28;45498;-81
2023/04/28 10:41:03;;;;;;;;;0.00;0.00;;;;;19.93;89.48;-19739.88;5037297;28;47742;-81
2023/04/28 10:43:29;;;;;;;;;0.00;0.00;;;;;19.91;89.62;-19739.34;5037201;28;45485;-81
2023/04/28 10:45:59;;;;;;;;;0.00;0.00;;;;;19.90;89.25;-19739.06;5037184;28;45368;-80
2023/04/28 10:48:28;;;;;;;;;0.00;0.00;;;;;19.93;89.55;-19739.88;5037406;28;45574;-83
2023/04/28 10:51:06;;;;;;;;;0.00;0.00;;;;;20.20;89.04;-19747.06;5037082;28;46735;-87
2023/04/28 10:53:44;;;;;;;;;0.00;0.00;;;;;20.84;89.39;-19763.75;5019172;28;45526;-81
2023/04/28 10:56:18;;;;;;;;;1.00;0.00;;;;;21.60;87.46;-19783.44;5037240;28;45442;-81
2023/04/28 10:58:59;;;;;;;;;0.00;0.00;;;;;22.45;86.26;-19805.41;5037441;28;45498;-81
2023/04/28 11:01:33;;;;;;;;;0.00;0.00;;;;;23.14;85.41;-19823.34;5018379;28;47361;-79
2023/04/28 11:04:17;;;;;;;;;0.75;0.00;;;;;23.22;83.57;-19825.34;5036928;28;45640;-82
2023/04/28 11:06:44;;;;;;;;;0.00;0.00;;;;;23.50;82.51;-19832.63;5037071;28;45455;-83
2023/04/28 11:09:16;;;;;;;;;0.00;0.00;;;;;23.36;80.54;-19829.19;5037532;28;45410;-83
2023/04/28 11:12:09;;;;;;;;;0.00;0.00;;;;;23.09;79.67;-19822.16;5036864;28;47081;-80
2023/04/28 11:14:36;;;;;;;;;1.00;0.00;;;;;22.89;80.89;-19816.97;5036180;28;45499;-80
2023/04/28 11:17:03;;;;;;;;;0.00;0.00;;;;;22.89;81.76;-19816.97;5036870;28;45402;-80
2023/04/28 11:19:37;;;;;;;;;0.00;0.00;;;;;23.09;82.00;-19822.16;5037046;28;45470;-81
2023/04/28 11:22:10;;;;;;;;;0.00;0.00;;;;;23.48;81.50;-19832.09;5036705;28;47225;-80
2023/04/28 11:24:36;;;;;;;;;0.00;0.00;;;;;23.88;80.68;-19842.59;5036746;28;45468;-80
2023/04/28 11:27:01;;;;;;;;;0.00;0.00;;;;;24.01;80.16;-19845.91;5036886;28;45466;-81
2023/04/28 11:29:37;;;;;;;;;0.00;0.00;;;;;24.23;79.24;-19851.75;5036521;28;45479;-80
2023/04/28 11:32:04;;;;;;;;;0.00;0.00;;;;;24.20;78.55;-19850.94;5036392;28;46561;-80
2023/04/28 11:34:30;;;;;;;;;0.00;0.00;;;;;24.06;77.19;-19847.25;5036339;28;45538;-81
2023/04/28 11:36:55;;;;;;;;;0.00;0.00;;;;;24.19;75.65;-19850.69;5036803;28;45892;-81
2023/04/28 11:39:32;;;;;;;;;1.00;0.00;;;;;24.66;76.31;-19862.63;5019050;28;45380;-81
2023/04/28 11:41:59;;;;;;;;;0.00;0.00;;;;;25.03;74.91;-19872.31;5018393;28;47151;-80
2023/04/28 11:44:27;;;;;;;;;0.00;0.00;;;;;25.40;75.04;-19881.84;5036046;28;45537;-81
2023/04/28 11:47:01;;;;;;;;;0.00;0.00;;;;;25.67;71.25;-19888.97;5036490;28;45561;-81
2023/04/28 11:49:29;;;;;;;;;0.00;0.00;;;;;25.73;72.79;-19890.44;5025199;28;45503;-80
2023/04/28 11:51:55;;;;;;;;;0.00;0.00;;;;;25.64;70.23;-19888.19;5016249;28;47053;-81
2023/04/28 11:54:26;;;;;;;;;0.60;0.00;;;;;25.58;70.40;-19886.59;5016212;28;45424;-81
2023/04/28 11:56:52;;;;;;;;;0.00;0.00;;;;;25.44;70.44;-19882.91;5016324;28;45485;-80
2023/04/28 11:59:23;;;;;;;;;0.00;0.00;;;;;25.85;71.37;-19893.50;5016082;28;45475;-80
2023/04/28 12:01:57;;;;;;;;;0.00;0.00;;;;;26.10;70.69;-19900.09;5016160;28;46339;-80
2023/04/28 12:04:35;;;;;;;;;0.40;0.00;;;;;26.52;68.99;-19910.94;5016035;28;45434;-80
2023/04/28 12:07:02;;;;;;;;;0.00;0.00;;;;;27.02;68.60;-19923.78;5015995;28;45508;-80
2023/04/28 12:09:27;;;;;;;;;0.00;0.00;;;;;27.20;68.21;-19928.38;5016349;28;45641;-81
2023/04/28 12:11:56;;;;;;;;;0.00;0.00;;;;;27.44;67.66;-19934.59;5015731;28;45481;-81
2023/04/28 12:14:23;;;;;;;;;0.00;0.00;;;;;27.58;64.59;-19938.16;5015945;28;45530;-81
2023/04/28 12:16:49;;;;;;;;;0.00;0.00;;;;;27.53;64.56;-19936.84;5016159;28;45375;-81
2023/04/28 12:19:16;;;;;;;;;0.00;0.00;;;;;27.41;64.14;-19933.81;5016303;28;45581;-80
2023/04/28 12:21:42;;;;;;;;;0.00;0.00;;;;;27.19;64.24;-19928.13;5015820;28;47236;-80
2023/04/28 12:24:14;;;;;;;;;0.00;0.00;;;;;27.05;63.35;-19924.44;5015886;28;45542;-80
2023/04/28 12:26:40;;;;;;;;;0.00;0.00;;;;;26.91;60.91;-19920.88;5014863;28;45582;-80
2023/04/28 12:29:06;;;;;;;;;0.00;0.00;;;;;27.54;60.52;-19937.25;5016072;28;45419;-81
2023/04/28 12:31:31;;;;;;;;;0.00;0.00;;;;;27.68;59.36;-19940.66;5015933;28;46827;-80
2023/04/28 12:33:57;;;;;;;;;0.00;0.00;;;;;28.17;60.64;-19953.47;5015860;28;45474;-80
2023/04/28 12:36:23;;;;;;;;;0.00;0.00;;;;;28.59;59.68;-19964.16;5015749;28;45477;-81
2023/04/28 12:38:48;;;;;;;;;0.00;0.00;;;;;28.72;59.06;-19967.44;5015918;28;45493;-81
2023/04/28 12:41:14;;;;;;;;;0.00;0.00;;;;;28.84;55.37;-19970.59;5015612;28;45811;-81
2023/04/28 12:43:43;;;;;;;;;0.00;0.00;;;;;29.08;56.85;-19976.66;5015526;28;45578;-81
2023/04/28 12:46:11;;;;;;;;;0.00;0.00;;;;;28.95;55.77;-19973.38;5015694;28;45493;-81
2023/04/28 12:48:37;;;;;;;;;0.00;0.00;;;;;28.53;55.60;-19962.69;5015882;28;45685;-81
2023/04/28 12:51:02;;;;;;;;;0.00;0.00;;;;;28.61;55.11;-19964.69;5015371;28;47124;-81
2023/04/28 12:53:27;;;;;;;;;0.00;0.00;;;;;28.76;55.43;-19968.50;5015710;28;45886;-80
2023/04/28 12:55:53;;;;;;;;;0.00;0.00;;;;;28.81;53.69;-19969.81;5015020;28;51767;-81
2023/04/28 12:58:18;;;;;;;;;0.00;0.00;;;;;28.85;53.84;-19970.88;5015916;28;45505;-80
2023/04/28 13:00:43;;;;;;;;;0.00;0.00;;;;;29.13;53.43;-19978.00;5015463;28;46128;-81
2023/04/28 13:03:09;;;;;;;;;0.00;0.00;;;;;29.09;52.44;-19293.56;5015529;28;45431;-80
2023/04/28 13:05:35;;;;;;;;;0.00;0.00;;;;;29.13;51.81;-18953.66;5015612;28;45634;-80
2023/04/28 13:08:00;;;;;;;;;0.00;0.00;;;;;29.03;52.60;-18951.44;5015894;28;45431;-80
2023/04/28 13:10:25;;;;;;;;;0.00;0.00;;;;;28.86;50.29;-15879.84;5014691;28;52951;-80
2023/04/28 13:12:51;;;;;;;;;0.00;0.00;;;;;28.65;48.50;-11100.94;5015392;28;45387;-80
2023/04/28 13:15:16;;;;;;;;;0.00;0.00;;;;;28.34;48.22;-8026.19;5015465;28;45742;-80
2023/04/28 13:17:42;;;;;;;;;0.00;0.00;;;;;28.17;48.98;-7683.72;5015155;28;48304;-80
2023/04/28 13:20:08;;;;;;;;;0.00;0.00;;;;;27.67;49.08;-6316.03;5015310;28;45674;-80
2023/04/28 13:22:33;;;;;;;;;0.00;0.00;;;;;27.72;49.00;-5975.00;5015322;28;45459;-80
2023/04/28 13:24:59;;;;;;;;;0.00;0.00;;;;;27.42;47.99;-1196.00;5014876;28;45628;-80
2023/04/28 13:27:24;;;;;;;;;0.00;0.00;;;;;27.31;48.93;-2561.91;5015622;28;45472;-80
2023/04/28 13:29:49;;;;;;;;;0.00;0.00;;;;;27.15;50.31;-4608.94;5015128;28;46748;-80
2023/04/28 13:32:15;;;;;;;;;0.00;0.00;;;;;27.01;49.87;-4267.72;5015233;28;45770;-80
2023/04/28 13:34:40;;;;;;;;;0.00;0.00;;;;;26.88;49.49;-2903.63;5015276;28;45431;-80
2023/04/28 13:37:05;;;;;;;;;0.00;0.00;;;;;26.76;49.10;-1880.66;5016863;28;45467;-80
2023/04/28 13:39:31;;;;;;;;;0.00;0.00;;;;;26.47;49.71;-2904.03;5018099;28;45435;-80
2023/04/28 13:42:00;;;;;;;;;0.00;0.00;;;;;26.42;50.95;-4267.03;5018368;28;45507;-80
2023/04/28 13:44:25;;;;;;;;;0.00;0.00;;;;;26.45;49.67;-1540.56;5018702;28;45509;-80
2023/04/28 13:46:51;;;;;;;;;0.00;0.00;;;;;26.29;49.89;-1200.19;5018761;28;45398;-80
2023/04/28 13:49:17;;;;;;;;;0.00;0.00;;;;;26.17;49.43;-859.78;5027954;28;46100;-80
2023/04/28 13:51:44;;;;;;;;;0.00;0.00;;;;;26.16;49.76;162.81;5038270;28;45376;-80
2023/04/28 13:54:10;;;;;;;;;0.00;0.00;;;;;26.08;48.91;1526.19;5038002;28;45582;-80
2023/04/28 13:56:36;;;;;;;;;0.00;0.00;;;;;25.95;48.34;4253.59;5038489;28;45464;-80
2023/04/28 13:59:01;;;;;;;;;0.00;0.00;;;;;25.83;48.14;5958.00;5037873;28;47007;-80
2023/04/28 14:01:27;;;;;;;;;0.00;0.00;;;;;25.72;48.39;6297.53;5037972;28;45759;-80
2023/04/28 14:03:52;;;;;;;;;0.00;0.00;;;;;25.77;48.91;5274.75;5037334;28;45473;-80
2023/04/28 14:06:18;;;;;;;;;0.00;0.00;;;;;25.52;47.56;9707.31;5037931;28;46823;-80
2023/04/28 14:08:43;;;;;;;;;0.00;0.00;;;;;25.63;48.44;7661.25;5037454;28;45456;-79
2023/04/28 14:11:08;;;;;;;;;0.00;0.00;;;;;25.58;49.28;4931.06;5037969;28;45777;-80
2023/04/28 14:13:34;;;;;;;;;0.00;0.00;;;;;25.52;50.05;3225.59;5038068;28;45462;-80
2023/04/28 14:16:00;;;;;;;;;0.00;0.00;;;;;25.48;49.78;3225.16;5038124;28;45499;-80
2023/04/28 14:18:26;;;;;;;;;0.00;0.00;;;;;25.32;50.03;3564.25;5037602;28;45505;-80
2023/04/28 14:20:53;;;;;;;;;0.00;0.00;;;;;25.39;50.39;2202.00;5037748;28;45418;-80
2023/04/28 14:23:19;;;;;;;;;0.00;0.00;;;;;25.37;50.93;1179.91;5037521;28;46121;-80
2023/04/28 14:25:44;;;;;;;;;0.00;0.00;;;;;25.29;49.71;3563.91;5038304;28;45753;-80
2023/04/28 14:28:10;;;;;;;;;0.00;0.00;;;;;25.30;49.05;4927.25;5037652;28;47158;-80
2023/04/28 14:30:35;;;;;;;;;0.00;0.00;;;;;25.01;50.23;3901.38;5037657;28;45505;-80
2023/04/28 14:33:01;;;;;;;;;0.00;0.00;;;;;25.21;49.02;5948.75;5037737;28;45508;-80
2023/04/28 14:35:26;;;;;;;;;0.00;0.00;;;;;25.18;49.82;5607.47;5037780;28;45411;-80
2023/04/28 14:37:53;;;;;;;;;0.25;0.00;;;;;25.14;49.31;5947.75;5037045;28;46272;-80
2023/04/28 14:40:18;;;;;;;;;0.00;0.00;;;;;25.11;49.48;6288.19;5037445;28;45762;-80
2023/04/28 14:42:44;;;;;;;;;0.00;0.00;;;;;24.93;49.89;5263.03;5037587;28;45589;-79
2023/04/28 14:45:10;;;;;;;;;0.00;0.00;;;;;25.02;50.54;4242.16;5037810;28;45443;-79
2023/04/28 14:47:37;;;;;;;;;0.00;0.00;;;;;25.00;49.72;5945.59;5037472;28;46270;-79
2023/04/28 14:50:03;;;;;;;;;0.00;0.00;;;;;24.90;50.23;5262.69;5036399;28;45406;-80
2023/04/28 14:52:30;;;;;;;;;0.00;0.00;;;;;24.71;49.39;6963.44;5037225;28;45427;-79
2023/04/28 14:54:56;;;;;;;;;0.25;0.25;;;;;24.90;48.83;7989.16;5037451;28;45548;-79
2023/04/28 14:57:23;;;;;;;;;0.00;0.00;;;;;24.58;50.07;6280.03;5037017;28;46106;-79
2023/04/28 14:59:50;;;;;;;;;0.00;0.00;;;;;24.75;50.42;4238.91;5036970;28;45371;-80
2023/04/28 15:02:16;;;;;;;;;0.00;0.00;;;;;24.81;50.18;5942.84;5037286;28;45578;-80
2023/04/28 15:04:41;;;;;;;;;0.00;0.00;;;;;24.70;50.39;5259.84;5037528;28;45569;-79
2023/04/28 15:07:10;;;;;;;;;0.00;0.00;;;;;24.60;50.18;5939.72;5036733;28;47149;-80
2023/04/28 15:09:35;;;;;;;;;1.00;0.00;;;;;24.74;49.97;6282.38;5036918;28;45332;-80
2023/04/28 15:12:01;;;;;;;;;0.00;0.00;;;;;24.56;50.03;5598.53;5037107;28;45708;-79
2023/04/28 15:14:27;;;;;;;;;0.00;0.00;;;;;24.68;51.03;4578.47;5037382;28;45712;-79
2023/04/28 15:16:53;;;;;;;;;0.00;0.00;;;;;24.66;51.06;4237.72;5036776;28;46235;-79
2023/04/28 15:19:18;;;;;;;;;0.00;0.00;;;;;24.57;50.42;5598.63;5036814;28;45594;-80
2023/04/28 15:21:44;;;;;;;;;0.00;0.00;;;;;24.44;50.49;5937.28;5036621;28;45402;-80
2023/04/28 15:24:09;;;;;;;;;0.00;0.00;;;;;24.47;51.32;4916.28;5037251;28;45414;-79
2023/04/28 15:26:34;;;;;;;;;0.00;0.00;;;;;24.44;51.21;3894.72;5036674;28;46027;-79
2023/04/28 15:29:00;;;;;;;;;0.00;0.00;;;;;24.44;51.20;3894.78;5036678;28;45457;-80
2023/04/28 15:31:27;;;;;;;;;0.00;0.00;;;;;24.40;51.17;4915.31;5036721;28;45400;-80
2023/04/28 15:33:52;;;;;;;;;0.00;0.00;;;;;24.35;51.44;3893.66;5037120;28;45446;-80
2023/04/28 15:36:19;;;;;;;;;0.00;0.00;;;;;24.19;51.16;4572.34;5036220;28;46472;-80
2023/04/28 15:38:46;;;;;;;;;0.00;0.00;;;;;24.28;49.93;7637.41;5036594;28;45318;-79
2023/04/28 15:41:13;;;;;;;;;0.00;0.00;;;;;24.23;50.64;6955.47;5036775;28;45671;-79
2023/04/28 15:43:39;;;;;;;;;0.00;0.00;;;;;24.23;50.99;5593.84;5036852;28;45595;-79
2023/04/28 15:46:09;;;;;;;;;0.00;0.00;;;;;24.11;50.82;4911.50;5036364;28;45536;-79
2023/04/28 15:48:37;;;;;;;;;0.00;0.00;;;;;24.07;51.22;4910.91;5036407;28;45717;-79
2023/04/28 15:51:02;;;;;;;;;0.00;0.00;;;;;24.15;51.15;4571.75;5036127;28;45467;-80
2023/04/28 15:53:28;;;;;;;;;0.00;0.00;;;;;23.83;51.14;5247.88;5036727;28;45598;-79
2023/04/28 15:55:53;;;;;;;;;0.00;0.00;;;;;24.08;50.61;6272.19;5035715;28;59318;-79
2023/04/28 15:58:19;;;;;;;;;0.00;0.00;;;;;24.05;51.64;5250.94;5035856;28;52066;-79
2023/04/28 16:00:44;;;;;;;;;0.00;0.00;;;;;24.00;51.04;5930.78;5035145;28;45450;-79
2023/04/28 16:03:10;;;;;;;;;0.00;0.00;;;;;23.94;51.58;4909.28;5036611;28;45487;-78
2023/04/28 16:05:37;;;;;;;;;0.00;0.00;;;;;23.84;51.78;4227.78;5035849;28;46307;-79
2023/04/28 16:08:02;;;;;;;;;0.00;0.00;;;;;23.92;51.74;4568.88;5036113;28;45404;-79
2023/04/28 16:10:27;;;;;;;;;0.00;0.00;;;;;23.86;51.27;5588.41;5036189;28;45396;-79
2023/04/28 16:12:53;;;;;;;;;0.00;0.00;;;;;23.83;51.42;5587.97;5036358;28;45450;-79
2023/04/28 16:15:19;;;;;;;;;0.00;0.00;;;;;23.72;51.80;5586.50;5017944;28;48410;-79
2023/04/28 16:17:44;;;;;;;;;0.00;0.00;;;;;23.70;51.24;5586.13;5036039;28;45425;-79
2023/04/28 16:20:10;;;;;;;;;0.00;0.00;;;;;23.69;51.39;5586.03;5035775;28;45523;-80
2023/04/28 16:22:37;;;;;;;;;0.00;0.00;;;;;23.73;50.92;6947.19;5036331;28;45558;-78
2023/04/28 16:25:03;;;;;;;;;0.00;0.00;;;;;23.57;50.99;7284.81;5035848;28;46184;-79
2023/04/28 16:27:29;;;;;;;;;0.00;0.00;;;;;23.67;50.93;6946.19;5035833;28;45446;-79
2023/04/28 16:29:55;;;;;;;;;0.00;0.00;;;;;23.45;51.04;7282.72;5036012;28;45542;-79
2023/04/28 16:32:21;;;;;;;;;0.00;0.00;;;;;23.60;50.66;7625.44;5036260;28;45575;-79
2023/04/28 16:34:46;;;;;;;;;0.00;0.00;;;;;23.55;50.52;8645.22;5035315;28;46581;-79
2023/04/28 16:37:11;;;;;;;;;0.00;0.00;;;;;23.51;50.99;8644.53;5035805;28;45387;-79